sensor_id;sensor_type;location;lat;lon;timestamp;P1;durP1;ratioP1;P2;durP2;ratioP2
3149;SDS011;32503;47.748;8.960;2022-07-25T00:01:46;12.77;;;11.87;;
3149;SDS011;32503;47.748;8.960;2022-07-25T00:04:13;13.03;;;12.00;;
3149;SDS011;32503;47.748;8.960;2022-07-25T00:06:41;12.37;;;11.47;;
3149;SDS011;32503;47.748;8.960;2022-07-25T00:09:09;12.70;;;11.80;;
3149;SDS011;32503;47.748;8.960;2022-07-25T00:11:36;13.10;;;12.13;;
3149;SDS011;32503;47.748;8.960;2022-07-25T00:14:03;12.73;;;11.83;;
3149;SDS011;32503;47.748;8.960;2022-07-25T00:16:31;13.43;;;12.37;;
3149;SDS011;32503;47.748;8.960;2022-07-25T00:18:58;12.37;;;11.37;;
3149;SDS011;32503;47.748;8.960;2022-07-25T00:21:26;14.17;;;12.97;;
3149;SDS011;32503;47.748;8.960;2022-07-25T00:23:54;13.87;;;12.80;;
3149;SDS011;32503;47.748;8.960;2022-07-25T00:26:21;14.07;;;12.90;;
3149;SDS011;32503;47.748;8.960;2022-07-25T00:28:49;14.10;;;13.00;;
3149;SDS011;32503;47.748;8.960;2022-07-25T00:31:16;14.33;;;13.10;;
3149;SDS011;32503;47.748;8.960;2022-07-25T00:33:43;14.13;;;12.93;;
3149;SDS011;32503;47.748;8.960;2022-07-25T00:36:10;13.07;;;12.17;;
3149;SDS011;32503;47.748;8.960;2022-07-25T00:38:37;13.20;;;12.10;;
3149;SDS011;32503;47.748;8.960;2022-07-25T00:41:06;13.63;;;12.63;;
3149;SDS011;32503;47.748;8.960;2022-07-25T00:43:33;14.20;;;12.83;;
3149;SDS011;32503;47.748;8.960;2022-07-25T00:46:00;12.83;;;11.60;;
3149;SDS011;32503;47.748;8.960;2022-07-25T00:48:27;14.23;;;13.03;;
3149;SDS011;32503;47.748;8.960;2022-07-25T00:50:55;12.80;;;11.87;;
3149;SDS011;32503;47.748;8.960;2022-07-25T00:53:23;13.57;;;12.57;;
3149;SDS011;32503;47.748;8.960;2022-07-25T00:55:51;14.13;;;13.10;;
3149;SDS011;32503;47.748;8.960;2022-07-25T00:58:19;13.70;;;12.60;;
3149;SDS011;32503;47.748;8.960;2022-07-25T01:00:47;13.10;;;12.20;;
3149;SDS011;32503;47.748;8.960;2022-07-25T01:03:14;12.70;;;11.80;;
3149;SDS011;32503;47.748;8.960;2022-07-25T01:05:42;13.40;;;12.30;;
3149;SDS011;32503;47.748;8.960;2022-07-25T01:08:09;13.53;;;12.40;;
3149;SDS011;32503;47.748;8.960;2022-07-25T01:10:37;13.00;;;12.00;;
3149;SDS011;32503;47.748;8.960;2022-07-25T01:13:05;13.53;;;12.53;;
3149;SDS011;32503;47.748;8.960;2022-07-25T01:15:34;13.13;;;12.10;;
3149;SDS011;32503;47.748;8.960;2022-07-25T01:18:01;13.10;;;12.27;;
3149;SDS011;32503;47.748;8.960;2022-07-25T01:20:30;14.33;;;13.17;;
3149;SDS011;32503;47.748;8.960;2022-07-25T01:22:59;13.83;;;12.57;;
3149;SDS011;32503;47.748;8.960;2022-07-25T01:25:26;13.27;;;12.17;;
3149;SDS011;32503;47.748;8.960;2022-07-25T01:27:54;13.70;;;12.60;;
3149;SDS011;32503;47.748;8.960;2022-07-25T01:30:22;12.60;;;11.70;;
3149;SDS011;32503;47.748;8.960;2022-07-25T01:32:51;13.63;;;12.53;;
3149;SDS011;32503;47.748;8.960;2022-07-25T01:35:18;13.87;;;12.77;;
3149;SDS011;32503;47.748;8.960;2022-07-25T01:37:47;14.20;;;13.10;;
3149;SDS011;32503;47.748;8.960;2022-07-25T01:40:14;13.97;;;12.87;;
3149;SDS011;32503;47.748;8.960;2022-07-25T01:42:41;14.50;;;13.30;;
3149;SDS011;32503;47.748;8.960;2022-07-25T01:45:09;14.57;;;13.07;;
3149;SDS011;32503;47.748;8.960;2022-07-25T01:47:37;14.03;;;12.93;;
3149;SDS011;32503;47.748;8.960;2022-07-25T01:50:05;12.87;;;11.90;;
3149;SDS011;32503;47.748;8.960;2022-07-25T01:52:34;12.70;;;11.70;;
3149;SDS011;32503;47.748;8.960;2022-07-25T01:55:05;13.00;;;12.00;;
3149;SDS011;32503;47.748;8.960;2022-07-25T01:57:33;13.23;;;12.17;;
3149;SDS011;32503;47.748;8.960;2022-07-25T02:00:00;14.13;;;13.00;;
3149;SDS011;32503;47.748;8.960;2022-07-25T02:02:28;14.20;;;13.10;;
3149;SDS011;32503;47.748;8.960;2022-07-25T02:04:56;14.77;;;13.47;;
3149;SDS011;32503;47.748;8.960;2022-07-25T02:07:23;16.53;;;14.90;;
3149;SDS011;32503;47.748;8.960;2022-07-25T02:09:50;15.70;;;14.20;;
3149;SDS011;32503;47.748;8.960;2022-07-25T02:12:18;14.60;;;13.40;;
3149;SDS011;32503;47.748;8.960;2022-07-25T02:14:45;15.17;;;13.77;;
3149;SDS011;32503;47.748;8.960;2022-07-25T02:17:12;15.10;;;13.77;;
3149;SDS011;32503;47.748;8.960;2022-07-25T02:19:40;14.33;;;13.13;;
3149;SDS011;32503;47.748;8.960;2022-07-25T02:22:07;14.17;;;12.87;;
3149;SDS011;32503;47.748;8.960;2022-07-25T02:24:34;14.23;;;13.13;;
3149;SDS011;32503;47.748;8.960;2022-07-25T02:27:02;14.37;;;13.10;;
3149;SDS011;32503;47.748;8.960;2022-07-25T02:29:31;14.30;;;13.10;;
3149;SDS011;32503;47.748;8.960;2022-07-25T02:31:59;15.87;;;14.57;;
3149;SDS011;32503;47.748;8.960;2022-07-25T02:34:26;15.13;;;13.83;;
3149;SDS011;32503;47.748;8.960;2022-07-25T02:36:53;15.43;;;13.93;;
3149;SDS011;32503;47.748;8.960;2022-07-25T02:39:20;16.30;;;14.73;;
3149;SDS011;32503;47.748;8.960;2022-07-25T02:41:47;15.50;;;14.17;;
3149;SDS011;32503;47.748;8.960;2022-07-25T02:44:14;15.13;;;13.87;;
3149;SDS011;32503;47.748;8.960;2022-07-25T02:46:42;14.87;;;13.63;;
3149;SDS011;32503;47.748;8.960;2022-07-25T02:49:09;15.50;;;14.10;;
3149;SDS011;32503;47.748;8.960;2022-07-25T02:51:37;14.33;;;13.23;;
3149;SDS011;32503;47.748;8.960;2022-07-25T02:54:04;15.70;;;14.20;;
3149;SDS011;32503;47.748;8.960;2022-07-25T02:56:31;15.07;;;13.77;;
3149;SDS011;32503;47.748;8.960;2022-07-25T02:58:58;14.63;;;13.53;;
3149;SDS011;32503;47.748;8.960;2022-07-25T03:01:25;15.37;;;13.77;;
3149;SDS011;32503;47.748;8.960;2022-07-25T03:03:54;12.97;;;11.80;;
3149;SDS011;32503;47.748;8.960;2022-07-25T03:06:21;14.10;;;12.90;;
3149;SDS011;32503;47.748;8.960;2022-07-25T03:08:48;13.27;;;12.23;;
3149;SDS011;32503;47.748;8.960;2022-07-25T03:11:15;15.07;;;13.77;;
3149;SDS011;32503;47.748;8.960;2022-07-25T03:13:42;14.93;;;13.73;;
3149;SDS011;32503;47.748;8.960;2022-07-25T03:16:09;15.53;;;14.13;;
3149;SDS011;32503;47.748;8.960;2022-07-25T03:18:37;13.80;;;12.60;;
3149;SDS011;32503;47.748;8.960;2022-07-25T03:21:05;16.20;;;14.40;;
3149;SDS011;32503;47.748;8.960;2022-07-25T03:23:33;14.53;;;13.33;;
3149;SDS011;32503;47.748;8.960;2022-07-25T03:26:00;15.37;;;14.07;;
3149;SDS011;32503;47.748;8.960;2022-07-25T03:28:27;14.27;;;13.10;;
3149;SDS011;32503;47.748;8.960;2022-07-25T03:30:54;15.23;;;13.93;;
3149;SDS011;32503;47.748;8.960;2022-07-25T03:33:22;15.67;;;14.07;;
3149;SDS011;32503;47.748;8.960;2022-07-25T03:35:49;14.57;;;13.27;;
3149;SDS011;32503;47.748;8.960;2022-07-25T03:38:17;15.27;;;13.90;;
3149;SDS011;32503;47.748;8.960;2022-07-25T03:40:44;16.57;;;15.17;;
3149;SDS011;32503;47.748;8.960;2022-07-25T03:43:11;14.20;;;12.87;;
3149;SDS011;32503;47.748;8.960;2022-07-25T03:45:39;15.63;;;14.13;;
3149;SDS011;32503;47.748;8.960;2022-07-25T03:48:06;14.87;;;13.53;;
3149;SDS011;32503;47.748;8.960;2022-07-25T03:50:33;14.10;;;12.90;;
3149;SDS011;32503;47.748;8.960;2022-07-25T03:53:00;14.43;;;13.23;;
3149;SDS011;32503;47.748;8.960;2022-07-25T03:55:28;14.90;;;13.50;;
3149;SDS011;32503;47.748;8.960;2022-07-25T03:57:55;14.73;;;13.43;;
3149;SDS011;32503;47.748;8.960;2022-07-25T04:00:22;15.10;;;13.70;;
3149;SDS011;32503;47.748;8.960;2022-07-25T04:02:50;14.30;;;13.03;;
3149;SDS011;32503;47.748;8.960;2022-07-25T04:05:17;14.03;;;12.83;;
3149;SDS011;32503;47.748;8.960;2022-07-25T04:07:44;14.50;;;13.23;;
3149;SDS011;32503;47.748;8.960;2022-07-25T04:10:11;14.47;;;13.07;;
3149;SDS011;32503;47.748;8.960;2022-07-25T04:12:39;14.33;;;13.07;;
3149;SDS011;32503;47.748;8.960;2022-07-25T04:15:06;14.20;;;13.10;;
3149;SDS011;32503;47.748;8.960;2022-07-25T04:17:34;16.20;;;14.70;;
3149;SDS011;32503;47.748;8.960;2022-07-25T04:20:02;13.43;;;12.43;;
3149;SDS011;32503;47.748;8.960;2022-07-25T04:22:29;14.17;;;13.00;;
3149;SDS011;32503;47.748;8.960;2022-07-25T04:24:57;15.30;;;13.93;;
3149;SDS011;32503;47.748;8.960;2022-07-25T04:27:24;15.03;;;13.73;;
3149;SDS011;32503;47.748;8.960;2022-07-25T04:29:52;14.20;;;13.10;;
3149;SDS011;32503;47.748;8.960;2022-07-25T04:32:19;13.63;;;12.43;;
3149;SDS011;32503;47.748;8.960;2022-07-25T04:34:46;15.10;;;13.80;;
3149;SDS011;32503;47.748;8.960;2022-07-25T04:37:14;14.20;;;13.00;;
3149;SDS011;32503;47.748;8.960;2022-07-25T04:39:41;13.57;;;12.37;;
3149;SDS011;32503;47.748;8.960;2022-07-25T04:42:08;15.87;;;12.80;;
3149;SDS011;32503;47.748;8.960;2022-07-25T04:44:35;13.90;;;12.80;;
3149;SDS011;32503;47.748;8.960;2022-07-25T04:47:03;13.47;;;12.53;;
3149;SDS011;32503;47.748;8.960;2022-07-25T04:49:31;13.60;;;12.50;;
3149;SDS011;32503;47.748;8.960;2022-07-25T04:51:58;13.43;;;12.33;;
3149;SDS011;32503;47.748;8.960;2022-07-25T04:54:25;12.77;;;11.67;;
3149;SDS011;32503;47.748;8.960;2022-07-25T04:56:52;13.43;;;12.30;;
3149;SDS011;32503;47.748;8.960;2022-07-25T04:59:19;13.30;;;12.20;;
3149;SDS011;32503;47.748;8.960;2022-07-25T05:01:46;13.23;;;12.20;;
3149;SDS011;32503;47.748;8.960;2022-07-25T05:04:15;13.83;;;12.80;;
3149;SDS011;32503;47.748;8.960;2022-07-25T05:06:42;14.20;;;13.00;;
3149;SDS011;32503;47.748;8.960;2022-07-25T05:09:09;15.40;;;13.90;;
3149;SDS011;32503;47.748;8.960;2022-07-25T05:11:36;15.83;;;14.53;;
3149;SDS011;32503;47.748;8.960;2022-07-25T05:14:03;13.47;;;12.47;;
3149;SDS011;32503;47.748;8.960;2022-07-25T05:16:30;13.10;;;12.00;;
3149;SDS011;32503;47.748;8.960;2022-07-25T05:18:57;15.33;;;14.13;;
3149;SDS011;32503;47.748;8.960;2022-07-25T05:21:26;15.23;;;14.00;;
3149;SDS011;32503;47.748;8.960;2022-07-25T05:23:53;15.17;;;13.97;;
3149;SDS011;32503;47.748;8.960;2022-07-25T05:26:51;16.27;;;14.83;;
3149;SDS011;32503;47.748;8.960;2022-07-25T05:29:08;16.10;;;14.60;;
3149;SDS011;32503;47.748;8.960;2022-07-25T05:31:36;16.67;;;15.27;;
3149;SDS011;32503;47.748;8.960;2022-07-25T05:34:03;14.67;;;13.47;;
3149;SDS011;32503;47.748;8.960;2022-07-25T05:36:34;16.83;;;15.23;;
3149;SDS011;32503;47.748;8.960;2022-07-25T05:39:11;15.00;;;13.70;;
3149;SDS011;32503;47.748;8.960;2022-07-25T05:41:39;13.90;;;12.70;;
3149;SDS011;32503;47.748;8.960;2022-07-25T05:44:06;15.83;;;14.50;;
3149;SDS011;32503;47.748;8.960;2022-07-25T05:46:33;16.27;;;14.87;;
3149;SDS011;32503;47.748;8.960;2022-07-25T05:49:01;19.13;;;15.90;;
3149;SDS011;32503;47.748;8.960;2022-07-25T05:51:28;17.77;;;15.97;;
3149;SDS011;32503;47.748;8.960;2022-07-25T05:53:56;16.20;;;14.80;;
3149;SDS011;32503;47.748;8.960;2022-07-25T05:56:25;15.17;;;14.00;;
3149;SDS011;32503;47.748;8.960;2022-07-25T05:58:54;14.53;;;13.53;;
3149;SDS011;32503;47.748;8.960;2022-07-25T06:01:21;16.30;;;14.93;;
3149;SDS011;32503;47.748;8.960;2022-07-25T06:03:48;17.80;;;16.20;;
3149;SDS011;32503;47.748;8.960;2022-07-25T06:06:15;14.37;;;13.37;;
3149;SDS011;32503;47.748;8.960;2022-07-25T06:08:42;14.53;;;13.50;;
3149;SDS011;32503;47.748;8.960;2022-07-25T06:11:11;15.67;;;14.37;;
3149;SDS011;32503;47.748;8.960;2022-07-25T06:13:38;15.00;;;13.80;;
3149;SDS011;32503;47.748;8.960;2022-07-25T06:16:05;16.00;;;14.70;;
3149;SDS011;32503;47.748;8.960;2022-07-25T06:18:33;15.00;;;13.80;;
3149;SDS011;32503;47.748;8.960;2022-07-25T06:21:00;14.60;;;13.40;;
3149;SDS011;32503;47.748;8.960;2022-07-25T06:23:27;16.30;;;14.90;;
3149;SDS011;32503;47.748;8.960;2022-07-25T06:25:56;13.77;;;12.67;;
3149;SDS011;32503;47.748;8.960;2022-07-25T06:28:24;16.37;;;15.00;;
3149;SDS011;32503;47.748;8.960;2022-07-25T06:30:51;14.20;;;13.10;;
3149;SDS011;32503;47.748;8.960;2022-07-25T06:33:19;14.80;;;13.27;;
3149;SDS011;32503;47.748;8.960;2022-07-25T06:35:46;15.10;;;14.00;;
3149;SDS011;32503;47.748;8.960;2022-07-25T06:38:13;15.33;;;14.07;;
3149;SDS011;32503;47.748;8.960;2022-07-25T06:40:40;14.97;;;13.50;;
3149;SDS011;32503;47.748;8.960;2022-07-25T06:43:07;15.50;;;14.30;;
3149;SDS011;32503;47.748;8.960;2022-07-25T06:45:35;16.63;;;15.00;;
3149;SDS011;32503;47.748;8.960;2022-07-25T06:48:03;14.57;;;13.17;;
3149;SDS011;32503;47.748;8.960;2022-07-25T06:50:30;15.40;;;14.10;;
3149;SDS011;32503;47.748;8.960;2022-07-25T06:52:57;15.33;;;13.93;;
3149;SDS011;32503;47.748;8.960;2022-07-25T06:55:25;15.93;;;14.63;;
3149;SDS011;32503;47.748;8.960;2022-07-25T06:57:52;15.07;;;13.77;;
3149;SDS011;32503;47.748;8.960;2022-07-25T07:00:19;15.23;;;14.03;;
3149;SDS011;32503;47.748;8.960;2022-07-25T07:02:48;14.03;;;12.97;;
3149;SDS011;32503;47.748;8.960;2022-07-25T07:05:17;15.73;;;14.37;;
3149;SDS011;32503;47.748;8.960;2022-07-25T07:07:44;16.00;;;14.80;;
3149;SDS011;32503;47.748;8.960;2022-07-25T07:10:12;15.43;;;14.07;;
3149;SDS011;32503;47.748;8.960;2022-07-25T07:12:39;16.90;;;15.30;;
3149;SDS011;32503;47.748;8.960;2022-07-25T07:15:06;17.00;;;15.60;;
3149;SDS011;32503;47.748;8.960;2022-07-25T07:17:34;16.37;;;15.00;;
3149;SDS011;32503;47.748;8.960;2022-07-25T07:20:04;14.87;;;13.67;;
3149;SDS011;32503;47.748;8.960;2022-07-25T07:22:41;16.30;;;14.83;;
3149;SDS011;32503;47.748;8.960;2022-07-25T07:25:11;17.27;;;15.77;;
3149;SDS011;32503;47.748;8.960;2022-07-25T07:27:39;15.73;;;14.63;;
3149;SDS011;32503;47.748;8.960;2022-07-25T07:30:07;15.20;;;14.00;;
3149;SDS011;32503;47.748;8.960;2022-07-25T07:32:35;15.50;;;13.93;;
3149;SDS011;32503;47.748;8.960;2022-07-25T07:35:04;14.47;;;13.13;;
3149;SDS011;32503;47.748;8.960;2022-07-25T07:37:32;14.60;;;13.30;;
3149;SDS011;32503;47.748;8.960;2022-07-25T07:39:59;13.73;;;12.73;;
3149;SDS011;32503;47.748;8.960;2022-07-25T07:42:26;15.77;;;14.30;;
3149;SDS011;32503;47.748;8.960;2022-07-25T07:45:02;15.20;;;13.90;;
3149;SDS011;32503;47.748;8.960;2022-07-25T07:47:35;16.13;;;14.27;;
3149;SDS011;32503;47.748;8.960;2022-07-25T07:50:04;15.43;;;14.37;;
3149;SDS011;32503;47.748;8.960;2022-07-25T07:52:32;15.00;;;13.90;;
3149;SDS011;32503;47.748;8.960;2022-07-25T07:55:00;17.00;;;15.50;;
3149;SDS011;32503;47.748;8.960;2022-07-25T07:57:44;16.87;;;15.67;;
3149;SDS011;32503;47.748;8.960;2022-07-25T08:00:12;14.97;;;13.97;;
3149;SDS011;32503;47.748;8.960;2022-07-25T08:02:41;15.17;;;14.17;;
3149;SDS011;32503;47.748;8.960;2022-07-25T08:05:11;15.73;;;14.63;;
3149;SDS011;32503;47.748;8.960;2022-07-25T08:07:39;16.67;;;15.37;;
3149;SDS011;32503;47.748;8.960;2022-07-25T08:10:06;16.77;;;15.50;;
3149;SDS011;32503;47.748;8.960;2022-07-25T08:12:38;17.90;;;16.50;;
3149;SDS011;32503;47.748;8.960;2022-07-25T08:15:07;16.27;;;14.90;;
3149;SDS011;32503;47.748;8.960;2022-07-25T08:17:35;17.07;;;15.67;;
3149;SDS011;32503;47.748;8.960;2022-07-25T08:20:02;18.10;;;16.80;;
3149;SDS011;32503;47.748;8.960;2022-07-25T08:22:37;18.13;;;16.63;;
3149;SDS011;32503;47.748;8.960;2022-07-25T08:25:06;16.67;;;15.07;;
3149;SDS011;32503;47.748;8.960;2022-07-25T08:27:35;16.87;;;15.40;;
3149;SDS011;32503;47.748;8.960;2022-07-25T08:30:03;18.00;;;16.57;;
3149;SDS011;32503;47.748;8.960;2022-07-25T08:32:33;17.40;;;16.07;;
3149;SDS011;32503;47.748;8.960;2022-07-25T08:35:10;18.87;;;17.33;;
3149;SDS011;32503;47.748;8.960;2022-07-25T08:37:39;17.17;;;16.07;;
3149;SDS011;32503;47.748;8.960;2022-07-25T08:40:06;18.40;;;17.10;;
3149;SDS011;32503;47.748;8.960;2022-07-25T08:42:36;16.43;;;15.33;;
3149;SDS011;32503;47.748;8.960;2022-07-25T08:45:04;16.27;;;15.07;;
3149;SDS011;32503;47.748;8.960;2022-07-25T08:47:34;17.10;;;16.00;;
3149;SDS011;32503;47.748;8.960;2022-07-25T08:50:03;16.23;;;15.03;;
3149;SDS011;32503;47.748;8.960;2022-07-25T08:52:33;17.80;;;16.40;;
3149;SDS011;32503;47.748;8.960;2022-07-25T08:55:04;17.60;;;16.10;;
3149;SDS011;32503;47.748;8.960;2022-07-25T08:57:35;18.00;;;16.70;;
3149;SDS011;32503;47.748;8.960;2022-07-25T09:00:06;17.60;;;16.30;;
3149;SDS011;32503;47.748;8.960;2022-07-25T09:02:35;16.83;;;15.57;;
3149;SDS011;32503;47.748;8.960;2022-07-25T09:05:04;16.00;;;14.90;;
3149;SDS011;32503;47.748;8.960;2022-07-25T09:07:32;17.70;;;15.87;;
3149;SDS011;32503;47.748;8.960;2022-07-25T09:10:11;17.97;;;16.40;;
3149;SDS011;32503;47.748;8.960;2022-07-25T09:12:40;17.60;;;16.30;;
3149;SDS011;32503;47.748;8.960;2022-07-25T09:15:21;18.40;;;16.70;;
3149;SDS011;32503;47.748;8.960;2022-07-25T09:17:50;16.60;;;15.43;;
3149;SDS011;32503;47.748;8.960;2022-07-25T09:20:18;16.30;;;15.20;;
3149;SDS011;32503;47.748;8.960;2022-07-25T09:22:47;16.87;;;15.53;;
3149;SDS011;32503;47.748;8.960;2022-07-25T09:25:23;16.00;;;15.00;;
3149;SDS011;32503;47.748;8.960;2022-07-25T09:27:53;15.97;;;14.77;;
3149;SDS011;32503;47.748;8.960;2022-07-25T09:30:21;16.47;;;15.37;;
3149;SDS011;32503;47.748;8.960;2022-07-25T09:32:57;17.17;;;15.87;;
3149;SDS011;32503;47.748;8.960;2022-07-25T09:35:29;17.97;;;16.50;;
3149;SDS011;32503;47.748;8.960;2022-07-25T09:38:05;16.93;;;15.67;;
3149;SDS011;32503;47.748;8.960;2022-07-25T09:40:39;17.03;;;15.73;;
3149;SDS011;32503;47.748;8.960;2022-07-25T09:43:06;16.80;;;15.43;;
3149;SDS011;32503;47.748;8.960;2022-07-25T09:45:34;16.07;;;14.87;;
3149;SDS011;32503;47.748;8.960;2022-07-25T09:48:03;15.90;;;14.80;;
3149;SDS011;32503;47.748;8.960;2022-07-25T09:50:31;16.40;;;14.90;;
3149;SDS011;32503;47.748;8.960;2022-07-25T09:52:59;16.23;;;14.97;;
3149;SDS011;32503;47.748;8.960;2022-07-25T09:55:28;15.80;;;14.63;;
3149;SDS011;32503;47.748;8.960;2022-07-25T09:57:57;16.40;;;15.00;;
3149;SDS011;32503;47.748;8.960;2022-07-25T10:00:24;15.07;;;14.00;;
3149;SDS011;32503;47.748;8.960;2022-07-25T10:06:01;15.57;;;14.37;;
3149;SDS011;32503;47.748;8.960;2022-07-25T10:08:36;15.80;;;14.53;;
3149;SDS011;32503;47.748;8.960;2022-07-25T10:11:16;15.40;;;14.40;;
3149;SDS011;32503;47.748;8.960;2022-07-25T10:13:46;14.70;;;13.63;;
3149;SDS011;32503;47.748;8.960;2022-07-25T10:16:14;14.27;;;13.43;;
3149;SDS011;32503;47.748;8.960;2022-07-25T10:18:48;14.43;;;13.53;;
3149;SDS011;32503;47.748;8.960;2022-07-25T10:21:17;14.80;;;13.80;;
3149;SDS011;32503;47.748;8.960;2022-07-25T10:23:55;15.40;;;14.10;;
3149;SDS011;32503;47.748;8.960;2022-07-25T10:26:24;14.50;;;13.27;;
3149;SDS011;32503;47.748;8.960;2022-07-25T10:28:53;14.77;;;13.87;;
3149;SDS011;32503;47.748;8.960;2022-07-25T10:31:21;15.40;;;14.30;;
3149;SDS011;32503;47.748;8.960;2022-07-25T10:33:54;16.00;;;14.90;;
3149;SDS011;32503;47.748;8.960;2022-07-25T10:36:23;13.40;;;12.60;;
3149;SDS011;32503;47.748;8.960;2022-07-25T10:38:55;15.43;;;14.33;;
3149;SDS011;32503;47.748;8.960;2022-07-25T10:41:27;13.70;;;12.80;;
3149;SDS011;32503;47.748;8.960;2022-07-25T10:43:58;14.10;;;13.10;;
3149;SDS011;32503;47.748;8.960;2022-07-25T10:46:27;13.50;;;12.30;;
3149;SDS011;32503;47.748;8.960;2022-07-25T10:48:57;14.20;;;13.20;;
3149;SDS011;32503;47.748;8.960;2022-07-25T10:51:26;12.27;;;11.57;;
3149;SDS011;32503;47.748;8.960;2022-07-25T10:53:54;12.37;;;11.47;;
3149;SDS011;32503;47.748;8.960;2022-07-25T10:56:23;12.43;;;11.53;;
3149;SDS011;32503;47.748;8.960;2022-07-25T10:58:52;11.37;;;10.67;;
3149;SDS011;32503;47.748;8.960;2022-07-25T11:01:23;10.70;;;10.03;;
3149;SDS011;32503;47.748;8.960;2022-07-25T11:03:53;11.83;;;10.80;;
3149;SDS011;32503;47.748;8.960;2022-07-25T11:06:28;10.63;;;9.67;;
3149;SDS011;32503;47.748;8.960;2022-07-25T11:08:58;10.17;;;9.67;;
3149;SDS011;32503;47.748;8.960;2022-07-25T11:11:32;11.20;;;9.97;;
3149;SDS011;32503;47.748;8.960;2022-07-25T11:14:02;9.80;;;9.30;;
3149;SDS011;32503;47.748;8.960;2022-07-25T11:16:32;10.83;;;10.23;;
3149;SDS011;32503;47.748;8.960;2022-07-25T11:18:59;9.90;;;9.50;;
3149;SDS011;32503;47.748;8.960;2022-07-25T11:21:26;10.60;;;10.00;;
3149;SDS011;32503;47.748;8.960;2022-07-25T11:23:53;10.77;;;10.03;;
3149;SDS011;32503;47.748;8.960;2022-07-25T11:26:20;10.33;;;9.73;;
3149;SDS011;32503;47.748;8.960;2022-07-25T11:28:48;9.73;;;9.33;;
3149;SDS011;32503;47.748;8.960;2022-07-25T11:31:16;10.70;;;10.10;;
3149;SDS011;32503;47.748;8.960;2022-07-25T11:33:46;9.87;;;9.37;;
3149;SDS011;32503;47.748;8.960;2022-07-25T11:36:14;8.67;;;8.27;;
3149;SDS011;32503;47.748;8.960;2022-07-25T11:38:42;9.13;;;8.53;;
3149;SDS011;32503;47.748;8.960;2022-07-25T11:41:14;9.40;;;8.90;;
3149;SDS011;32503;47.748;8.960;2022-07-25T11:43:52;9.00;;;8.50;;
3149;SDS011;32503;47.748;8.960;2022-07-25T11:46:19;8.47;;;7.87;;
3149;SDS011;32503;47.748;8.960;2022-07-25T11:48:48;8.13;;;7.73;;
3149;SDS011;32503;47.748;8.960;2022-07-25T11:51:15;8.00;;;7.60;;
3149;SDS011;32503;47.748;8.960;2022-07-25T11:53:44;9.17;;;8.70;;
3149;SDS011;32503;47.748;8.960;2022-07-25T11:56:14;8.10;;;7.80;;
3149;SDS011;32503;47.748;8.960;2022-07-25T11:58:48;7.90;;;7.40;;
3149;SDS011;32503;47.748;8.960;2022-07-25T12:01:24;9.00;;;8.57;;
3149;SDS011;32503;47.748;8.960;2022-07-25T12:04:07;8.83;;;8.33;;
3149;SDS011;32503;47.748;8.960;2022-07-25T12:06:37;9.20;;;8.50;;
3149;SDS011;32503;47.748;8.960;2022-07-25T12:09:11;8.90;;;8.40;;
3149;SDS011;32503;47.748;8.960;2022-07-25T12:11:40;9.57;;;8.83;;
3149;SDS011;32503;47.748;8.960;2022-07-25T12:14:08;9.20;;;8.80;;
3149;SDS011;32503;47.748;8.960;2022-07-25T12:16:36;8.93;;;8.10;;
3149;SDS011;32503;47.748;8.960;2022-07-25T12:19:03;9.00;;;8.60;;
3149;SDS011;32503;47.748;8.960;2022-07-25T12:21:43;10.43;;;9.83;;
3149;SDS011;32503;47.748;8.960;2022-07-25T12:24:10;8.77;;;8.20;;
3149;SDS011;32503;47.748;8.960;2022-07-25T12:26:37;8.77;;;8.40;;
3149;SDS011;32503;47.748;8.960;2022-07-25T12:29:04;8.80;;;8.20;;
3149;SDS011;32503;47.748;8.960;2022-07-25T12:31:31;8.70;;;8.10;;
3149;SDS011;32503;47.748;8.960;2022-07-25T12:33:58;9.67;;;9.07;;
3149;SDS011;32503;47.748;8.960;2022-07-25T12:36:27;8.50;;;8.20;;
3149;SDS011;32503;47.748;8.960;2022-07-25T12:38:54;8.83;;;8.43;;
3149;SDS011;32503;47.748;8.960;2022-07-25T12:41:21;9.13;;;8.70;;
3149;SDS011;32503;47.748;8.960;2022-07-25T12:43:48;10.57;;;9.97;;
3149;SDS011;32503;47.748;8.960;2022-07-25T12:46:15;8.43;;;7.93;;
3149;SDS011;32503;47.748;8.960;2022-07-25T12:48:42;8.23;;;7.83;;
3149;SDS011;32503;47.748;8.960;2022-07-25T12:51:09;8.80;;;8.20;;
3149;SDS011;32503;47.748;8.960;2022-07-25T12:53:37;9.13;;;8.63;;
3149;SDS011;32503;47.748;8.960;2022-07-25T12:56:05;9.73;;;8.83;;
3149;SDS011;32503;47.748;8.960;2022-07-25T12:58:32;8.67;;;8.10;;
3149;SDS011;32503;47.748;8.960;2022-07-25T13:00:59;9.60;;;8.80;;
3149;SDS011;32503;47.748;8.960;2022-07-25T13:03:26;8.80;;;8.30;;
3149;SDS011;32503;47.748;8.960;2022-07-25T13:05:53;8.57;;;8.10;;
3149;SDS011;32503;47.748;8.960;2022-07-25T13:08:20;8.03;;;7.73;;
3149;SDS011;32503;47.748;8.960;2022-07-25T13:10:48;7.60;;;7.40;;
3149;SDS011;32503;47.748;8.960;2022-07-25T13:13:16;8.60;;;8.00;;
3149;SDS011;32503;47.748;8.960;2022-07-25T13:15:43;9.23;;;8.67;;
3149;SDS011;32503;47.748;8.960;2022-07-25T13:18:10;9.70;;;9.30;;
3149;SDS011;32503;47.748;8.960;2022-07-25T13:23:05;10.20;;;9.60;;
3149;SDS011;32503;47.748;8.960;2022-07-25T13:25:32;8.50;;;8.10;;
3149;SDS011;32503;47.748;8.960;2022-07-25T13:28:02;9.17;;;8.63;;
3149;SDS011;32503;47.748;8.960;2022-07-25T13:30:30;9.00;;;8.40;;
3149;SDS011;32503;47.748;8.960;2022-07-25T13:32:57;9.60;;;9.10;;
3149;SDS011;32503;47.748;8.960;2022-07-25T13:35:24;9.83;;;9.13;;
3149;SDS011;32503;47.748;8.960;2022-07-25T13:37:51;10.23;;;9.30;;
3149;SDS011;32503;47.748;8.960;2022-07-25T13:40:18;9.80;;;9.20;;
3149;SDS011;32503;47.748;8.960;2022-07-25T13:42:46;9.67;;;9.17;;
3149;SDS011;32503;47.748;8.960;2022-07-25T13:45:14;10.30;;;9.70;;
3149;SDS011;32503;47.748;8.960;2022-07-25T13:47:42;9.90;;;9.33;;
3149;SDS011;32503;47.748;8.960;2022-07-25T13:50:09;10.07;;;9.67;;
3149;SDS011;32503;47.748;8.960;2022-07-25T13:52:36;9.63;;;9.27;;
3149;SDS011;32503;47.748;8.960;2022-07-25T13:55:03;10.60;;;10.07;;
3149;SDS011;32503;47.748;8.960;2022-07-25T13:57:31;9.97;;;9.43;;
3149;SDS011;32503;47.748;8.960;2022-07-25T13:59:59;10.37;;;9.87;;
3149;SDS011;32503;47.748;8.960;2022-07-25T14:02:27;10.90;;;10.30;;
3149;SDS011;32503;47.748;8.960;2022-07-25T14:04:54;10.10;;;9.60;;
3149;SDS011;32503;47.748;8.960;2022-07-25T14:07:21;10.23;;;9.40;;
3149;SDS011;32503;47.748;8.960;2022-07-25T14:09:48;9.67;;;9.20;;
3149;SDS011;32503;47.748;8.960;2022-07-25T14:12:15;9.97;;;9.37;;
3149;SDS011;32503;47.748;8.960;2022-07-25T14:14:42;10.50;;;9.90;;
3149;SDS011;32503;47.748;8.960;2022-07-25T14:17:09;9.07;;;8.67;;
3149;SDS011;32503;47.748;8.960;2022-07-25T14:19:38;9.97;;;9.47;;
3149;SDS011;32503;47.748;8.960;2022-07-25T14:22:05;11.00;;;10.10;;
3149;SDS011;32503;47.748;8.960;2022-07-25T14:24:33;9.00;;;8.60;;
3149;SDS011;32503;47.748;8.960;2022-07-25T14:27:00;9.67;;;9.20;;
3149;SDS011;32503;47.748;8.960;2022-07-25T14:29:27;9.80;;;9.30;;
3149;SDS011;32503;47.748;8.960;2022-07-25T14:31:54;10.47;;;9.97;;
3149;SDS011;32503;47.748;8.960;2022-07-25T14:34:21;10.17;;;9.67;;
3149;SDS011;32503;47.748;8.960;2022-07-25T14:36:50;10.93;;;10.13;;
3149;SDS011;32503;47.748;8.960;2022-07-25T14:39:17;9.70;;;9.20;;
3149;SDS011;32503;47.748;8.960;2022-07-25T14:41:44;10.27;;;9.80;;
3149;SDS011;32503;47.748;8.960;2022-07-25T14:44:11;9.40;;;9.00;;
3149;SDS011;32503;47.748;8.960;2022-07-25T14:46:39;9.50;;;9.00;;
3149;SDS011;32503;47.748;8.960;2022-07-25T14:49:07;10.50;;;9.90;;
3149;SDS011;32503;47.748;8.960;2022-07-25T14:51:36;10.00;;;9.50;;
3149;SDS011;32503;47.748;8.960;2022-07-25T14:54:05;10.27;;;9.77;;